createdAt,value
2017-04-05T00:01:41.995Z,0
2017-04-05T00:02:22.438Z,0
2017-04-05T00:03:02.894Z,0
2017-04-05T00:03:43.326Z,0
2017-04-05T00:04:23.817Z,0
2017-04-05T00:05:04.284Z,0
2017-04-05T00:05:44.761Z,0
2017-04-05T00:07:42.405Z,0
2017-04-05T00:08:22.908Z,0
2017-04-05T00:09:03.420Z,0
2017-04-05T00:09:43.873Z,0
2017-04-05T00:10:24.349Z,0
2017-04-05T00:11:04.851Z,0
2017-04-05T00:11:45.346Z,0
2017-04-05T00:12:25.865Z,0
2017-04-05T00:13:06.308Z,0
2017-04-05T00:13:46.812Z,0
2017-04-05T00:16:14.738Z,0
2017-04-05T00:16:55.230Z,0
2017-04-05T00:17:35.652Z,0
2017-04-05T00:18:16.105Z,0
2017-04-05T00:18:56.540Z,0
2017-04-05T00:21:14.324Z,0
2017-04-05T00:21:54.802Z,0
2017-04-05T00:22:35.272Z,0
2017-04-05T00:23:15.736Z,0
2017-04-05T00:23:56.243Z,0
2017-04-05T00:24:36.729Z,0
2017-04-05T00:25:17.181Z,0
2017-04-05T00:25:57.621Z,0
2017-04-05T00:26:38.075Z,0
2017-04-05T00:27:18.511Z,0
2017-04-05T00:27:58.975Z,0
2017-04-05T00:30:16.766Z,0
2017-04-05T00:30:57.245Z,0
2017-04-05T00:31:37.675Z,0
2017-04-05T00:32:18.127Z,0
2017-04-05T00:32:58.620Z,0
2017-04-05T00:33:39.094Z,0
2017-04-05T00:34:19.536Z,0
2017-04-05T00:34:59.942Z,0
2017-04-05T00:35:40.359Z,0
2017-04-05T00:36:20.824Z,0
2017-04-05T00:37:01.251Z,0
2017-04-05T00:37:41.720Z,0
2017-04-05T00:38:22.169Z,0
2017-04-05T00:40:19.831Z,0
2017-04-05T00:41:00.311Z,0
2017-04-05T00:41:40.773Z,0
2017-04-05T00:43:53.456Z,0
2017-04-05T00:44:33.960Z,0
2017-04-05T00:45:14.465Z,0
2017-04-05T00:45:55.702Z,0
2017-04-05T00:46:36.186Z,0
2017-04-05T00:47:16.666Z,0
2017-04-05T00:47:57.142Z,0
2017-04-05T00:48:37.637Z,0
2017-04-05T00:49:18.119Z,0
2017-04-05T00:49:58.556Z,0
2017-04-05T00:50:39.008Z,0
2017-04-05T00:51:19.490Z,0
2017-04-05T00:51:59.884Z,0
2017-04-05T00:52:40.346Z,0
2017-04-05T00:55:08.283Z,0
2017-04-05T00:55:48.760Z,0
2017-04-05T00:56:29.238Z,0
2017-04-05T00:57:09.700Z,0
2017-04-05T00:57:50.164Z,0
2017-04-05T00:58:30.619Z,0
2017-04-05T00:59:11.084Z,0
2017-04-05T00:59:51.553Z,0
2017-04-05T01:00:32.009Z,0
2017-04-05T01:01:12.458Z,0
2017-04-05T01:03:10.111Z,0
2017-04-05T01:03:50.600Z,0
2017-04-05T01:04:31.053Z,0
2017-04-05T01:05:11.501Z,0
2017-04-05T01:05:51.924Z,0
2017-04-05T01:06:32.360Z,0
2017-04-05T01:07:12.851Z,0
2017-04-05T01:07:53.260Z,0
2017-04-05T01:10:06.077Z,0
2017-04-05T01:10:46.528Z,0
2017-04-05T01:11:26.992Z,0
2017-04-05T01:12:07.414Z,0
2017-04-05T01:12:47.935Z,0
2017-04-05T01:13:28.383Z,0
2017-04-05T01:14:08.837Z,0
2017-04-05T01:14:49.293Z,0
2017-04-05T01:15:29.767Z,0
2017-04-05T01:16:10.180Z,0
2017-04-05T01:16:50.588Z,0
2017-04-05T01:17:31.070Z,0
2017-04-05T01:18:11.553Z,0
2017-04-05T01:18:52.019Z,0
2017-04-05T01:21:25.038Z,0
2017-04-05T01:22:05.521Z,0
2017-04-05T01:22:46.006Z,0
2017-04-05T01:23:26.527Z,0
2017-04-05T01:24:06.975Z,0
2017-04-05T01:24:47.429Z,0
2017-04-05T01:25:27.891Z,0
2017-04-05T01:26:08.376Z,0
2017-04-05T01:26:48.821Z,0
2017-04-05T01:27:29.250Z,0
2017-04-05T01:28:09.695Z,0
2017-04-05T01:28:50.146Z,0
2017-04-05T01:31:23.211Z,0
2017-04-05T01:32:03.670Z,0
2017-04-05T01:32:44.133Z,0
2017-04-05T01:33:24.578Z,0
2017-04-05T01:35:42.488Z,0
2017-04-05T01:36:22.953Z,0
2017-04-05T01:37:03.392Z,0
2017-04-05T01:39:31.347Z,0
2017-04-05T01:40:11.836Z,0
2017-04-05T01:40:52.325Z,0
2017-04-05T01:41:32.784Z,0
2017-04-05T01:42:13.252Z,0
2017-04-05T01:42:53.740Z,0
2017-04-05T01:43:34.144Z,0
2017-04-05T01:46:07.172Z,0
2017-04-05T01:46:47.634Z,0
2017-04-05T01:47:28.069Z,0
2017-04-05T01:48:08.516Z,0
2017-04-05T01:48:49.006Z,0
2017-04-05T01:49:29.457Z,0
2017-04-05T01:50:09.878Z,0
2017-04-05T01:52:07.503Z,0
2017-04-05T01:52:47.981Z,0
2017-04-05T01:53:28.416Z,0
2017-04-05T01:54:08.851Z,0
2017-04-05T01:54:49.306Z,0
2017-04-05T01:55:29.792Z,0
2017-04-05T01:56:10.204Z,0
2017-04-05T01:56:50.625Z,0
2017-04-05T01:57:31.053Z,0
2017-04-05T01:58:11.504Z,0
2017-04-05T01:58:51.951Z,0
2017-04-05T01:59:32.403Z,0
2017-04-05T02:00:12.850Z,0
2017-04-05T02:00:53.304Z,0
2017-04-05T02:01:33.761Z,0
2017-04-05T02:04:06.744Z,0
2017-04-05T02:04:47.243Z,0
2017-04-05T02:05:27.711Z,0
2017-04-05T02:06:08.189Z,0
2017-04-05T02:06:48.630Z,0
2017-04-05T02:07:29.109Z,0
2017-04-05T02:08:09.588Z,0
2017-04-05T02:10:27.392Z,0
2017-04-05T02:11:07.843Z,0
2017-04-05T02:11:48.315Z,0
2017-04-05T02:14:00.983Z,0
2017-04-05T02:14:41.467Z,0
2017-04-05T02:15:21.972Z,0
2017-04-05T02:16:02.435Z,0
2017-04-05T02:16:42.890Z,0
2017-04-05T02:17:23.354Z,0
2017-04-05T02:18:03.784Z,0
2017-04-05T02:18:44.254Z,0
2017-04-05T02:19:24.684Z,0
2017-04-05T02:21:42.496Z,0
2017-04-05T02:22:22.909Z,0
2017-04-05T02:23:03.344Z,0
2017-04-05T02:25:21.125Z,0
2017-04-05T02:26:01.598Z,0
2017-04-05T02:26:42.094Z,0
2017-04-05T02:27:22.570Z,0
2017-04-05T02:28:03.045Z,0
2017-04-05T02:28:43.558Z,0
2017-04-05T02:29:24.033Z,0
2017-04-05T02:30:04.496Z,0
2017-04-05T02:30:44.894Z,0
2017-04-05T02:31:25.360Z,0
2017-04-05T02:32:05.814Z,0
2017-04-05T02:32:46.266Z,0
2017-04-05T02:33:26.735Z,0
2017-04-05T02:35:44.528Z,0
2017-04-05T02:36:24.996Z,0
2017-04-05T02:37:05.545Z,0
2017-04-05T02:37:45.945Z,0
2017-04-05T02:38:26.455Z,0
2017-04-05T02:39:06.858Z,0
2017-04-05T02:39:47.339Z,0
2017-04-05T02:42:05.159Z,0
2017-04-05T02:42:45.631Z,0
2017-04-05T02:43:26.094Z,0
2017-04-05T02:44:06.568Z,0
2017-04-05T02:44:47.042Z,0
2017-04-05T02:47:20.395Z,0
2017-04-05T02:48:00.875Z,0
2017-04-05T02:48:41.337Z,0
2017-04-05T02:49:21.805Z,0
2017-04-05T02:50:02.282Z,0
2017-04-05T02:50:42.755Z,0
2017-04-05T02:51:23.203Z,0
2017-04-05T02:52:03.652Z,0
2017-04-05T02:52:44.140Z,0
2017-04-05T02:53:24.623Z,0
2017-04-05T02:54:05.028Z,0
2017-04-05T02:56:02.686Z,0
2017-04-05T02:56:43.151Z,0
2017-04-05T02:58:40.741Z,0
2017-04-05T02:59:21.219Z,0
2017-04-05T03:00:01.687Z,0
2017-04-05T03:00:42.206Z,0
2017-04-05T03:01:22.692Z,0
2017-04-05T03:02:03.160Z,0
2017-04-05T03:02:43.584Z,0
2017-04-05T03:03:24.039Z,0
2017-04-05T03:04:04.505Z,0
2017-04-05T03:04:44.979Z,0
2017-04-05T03:05:25.419Z,0
2017-04-05T03:06:05.873Z,0
2017-04-05T03:06:46.343Z,0
2017-04-05T03:07:26.789Z,0
2017-04-05T03:09:54.705Z,0
2017-04-05T03:10:35.149Z,0
2017-04-05T03:11:15.598Z,0
2017-04-05T03:13:43.495Z,0
2017-04-05T03:14:24.023Z,0
2017-04-05T03:15:04.521Z,0
2017-04-05T03:15:45.004Z,0
2017-04-05T03:18:18.025Z,0
2017-04-05T03:18:58.499Z,0
2017-04-05T03:19:38.961Z,0
2017-04-05T03:20:19.405Z,0
2017-04-05T03:20:59.875Z,0
2017-04-05T03:21:40.333Z,0
2017-04-05T03:22:20.766Z,0
2017-04-05T03:23:01.211Z,0
2017-04-05T03:23:41.665Z,0
2017-04-05T03:25:39.290Z,0
2017-04-05T03:26:19.759Z,0
2017-04-05T03:27:00.172Z,0
2017-04-05T03:27:40.616Z,0
2017-04-05T03:28:21.069Z,0
2017-04-05T03:29:01.502Z,0
2017-04-05T03:29:41.934Z,0
2017-04-05T03:30:22.371Z,0
2017-04-05T03:31:02.818Z,0
2017-04-05T03:33:20.614Z,0
2017-04-05T03:34:01.095Z,0
2017-04-05T03:34:41.528Z,0
2017-04-05T03:36:39.164Z,0
2017-04-05T03:37:19.601Z,0
2017-04-05T03:38:00.041Z,0
2017-04-05T03:38:40.505Z,0
2017-04-05T03:39:20.944Z,0
2017-04-05T03:40:01.377Z,0
2017-04-05T03:40:41.819Z,0
2017-04-05T03:41:22.294Z,0
2017-04-05T03:42:02.764Z,0
2017-04-05T03:42:43.215Z,0
2017-04-05T03:45:11.162Z,0
2017-04-05T03:45:51.581Z,0
2017-04-05T03:46:32.013Z,0
2017-04-05T03:47:12.490Z,0
2017-04-05T03:47:52.959Z,0
2017-04-05T03:48:33.354Z,0
2017-04-05T03:49:13.804Z,0
2017-04-05T03:49:54.252Z,0
2017-04-05T03:50:34.674Z,0
2017-04-05T03:51:15.126Z,0
2017-04-05T03:51:55.542Z,0
2017-04-05T03:52:35.998Z,0
2017-04-05T03:53:16.442Z,0
2017-04-05T03:53:56.890Z,0
2017-04-05T03:56:29.912Z,0
2017-04-05T03:57:10.380Z,0
2017-04-05T03:57:50.806Z,0
2017-04-05T03:58:31.273Z,0
2017-04-05T03:59:11.653Z,0
2017-04-05T03:59:52.077Z,0
2017-04-05T04:00:32.538Z,0
2017-04-05T04:01:12.976Z,0
2017-04-05T04:01:53.413Z,0
2017-04-05T04:02:33.869Z,0
2017-04-05T04:03:14.306Z,0
2017-04-05T04:03:54.776Z,0
2017-04-05T04:04:35.185Z,0
2017-04-05T04:05:15.632Z,0
2017-04-05T04:05:56.076Z,0
2017-04-05T04:06:36.554Z,0
2017-04-05T04:09:09.534Z,0
2017-04-05T04:09:49.959Z,0
2017-04-05T04:10:30.382Z,0
2017-04-05T04:11:10.900Z,0
2017-04-05T04:11:51.305Z,0
2017-04-05T04:12:31.687Z,0
2017-04-05T04:13:12.120Z,0
2017-04-05T04:13:52.564Z,0
2017-04-05T04:14:32.974Z,0
2017-04-05T04:15:13.404Z,0
2017-04-05T04:15:53.881Z,0
2017-04-05T04:16:34.345Z,0
2017-04-05T04:17:14.791Z,0
2017-04-05T04:19:42.730Z,0
2017-04-05T04:20:23.224Z,0
2017-04-05T04:21:03.703Z,0
2017-04-05T04:21:44.196Z,0
2017-04-05T04:22:24.651Z,0
2017-04-05T04:23:05.129Z,0
2017-04-05T04:23:45.611Z,0
2017-04-05T04:24:26.076Z,0
2017-04-05T04:25:06.493Z,0
2017-04-05T04:25:46.965Z,0
2017-04-05T04:26:27.360Z,0
2017-04-05T04:27:07.776Z,4
2017-04-05T04:27:48.218Z,4
2017-04-05T04:30:00.926Z,4
2017-04-05T04:30:41.414Z,4
2017-04-05T04:31:21.890Z,4
2017-04-05T04:32:02.352Z,8
2017-04-05T04:32:42.797Z,4
2017-04-05T04:33:23.238Z,8
2017-04-05T04:34:03.666Z,8
2017-04-05T04:34:44.075Z,8
2017-04-05T04:35:24.577Z,12
2017-04-05T04:36:04.999Z,12
2017-04-05T04:36:45.518Z,12
2017-04-05T04:37:25.943Z,16
2017-04-05T04:38:06.382Z,16
2017-04-05T04:38:46.814Z,20
2017-04-05T04:39:27.260Z,20
2017-04-05T04:40:07.686Z,24
2017-04-05T04:40:48.122Z,24
2017-04-05T04:41:28.592Z,28
2017-04-05T04:42:09.025Z,32
2017-04-05T04:42:49.477Z,36
2017-04-05T04:43:29.918Z,40
2017-04-05T04:44:10.351Z,44
2017-04-05T04:44:50.798Z,48
2017-04-05T04:45:31.231Z,52
2017-04-05T04:46:11.689Z,56
2017-04-05T04:46:52.093Z,64
2017-04-05T04:47:32.520Z,72
2017-04-05T04:48:12.970Z,80
2017-04-05T04:48:53.433Z,84
2017-04-05T04:49:33.923Z,92
2017-04-05T04:50:14.342Z,100
2017-04-05T04:50:54.787Z,108
2017-04-05T04:51:35.222Z,120
2017-04-05T04:52:15.685Z,128
2017-04-05T04:52:56.128Z,140
2017-04-05T04:53:36.581Z,148
2017-04-05T04:54:16.992Z,160
2017-04-05T04:54:57.451Z,172
2017-04-05T04:55:37.912Z,184
2017-04-05T04:56:18.346Z,200
2017-04-05T04:58:51.312Z,252
2017-04-05T04:59:31.783Z,268
2017-04-05T05:00:12.246Z,284
2017-04-05T05:00:52.729Z,300
2017-04-05T05:01:33.221Z,316
2017-04-05T05:02:13.680Z,336
2017-04-05T05:02:54.100Z,356
2017-04-05T05:03:34.528Z,372
2017-04-05T05:04:14.977Z,396
2017-04-05T05:04:55.424Z,412
2017-04-05T05:05:35.859Z,432
2017-04-05T05:06:16.305Z,456
2017-04-05T05:08:13.992Z,520
2017-04-05T05:08:54.473Z,548
2017-04-05T05:09:34.957Z,576
2017-04-05T05:10:15.427Z,596
2017-04-05T05:10:55.924Z,624
2017-04-05T05:11:36.407Z,652
2017-04-05T05:12:16.881Z,676
2017-04-05T05:12:57.358Z,704
2017-04-05T05:13:37.841Z,736
2017-04-05T05:14:18.336Z,764
2017-04-05T05:14:58.821Z,792
2017-04-05T05:15:39.274Z,824
2017-04-05T05:16:19.710Z,852
2017-04-05T05:17:00.168Z,880
2017-04-05T05:17:40.593Z,912
2017-04-05T05:18:21.041Z,940
2017-04-05T05:19:01.486Z,972
2017-04-05T05:19:41.913Z,1004
2017-04-05T05:20:22.357Z,1040
2017-04-05T05:21:02.773Z,1076
2017-04-05T05:23:20.564Z,1204
2017-04-05T05:24:01.059Z,1244
2017-04-05T05:24:41.462Z,1280
2017-04-05T05:25:21.957Z,1316
2017-04-05T05:26:02.378Z,1352
2017-04-05T05:26:42.882Z,1392
2017-04-05T05:27:23.363Z,1428
2017-04-05T05:28:03.803Z,1464
2017-04-05T05:28:44.232Z,1500
2017-04-05T05:31:12.255Z,1636
2017-04-05T05:31:52.730Z,1668
2017-04-05T05:32:33.186Z,1708
2017-04-05T05:33:13.658Z,1744
2017-04-05T05:33:54.085Z,1780
2017-04-05T05:34:34.514Z,1820
2017-04-05T05:35:14.970Z,1856
2017-04-05T05:37:27.696Z,1992
2017-04-05T05:38:08.071Z,2036
2017-04-05T05:40:41.178Z,2176
2017-04-05T05:41:21.640Z,2212
2017-04-05T05:43:49.715Z,2356
2017-04-05T05:44:30.133Z,2392
2017-04-05T05:45:10.565Z,2432
2017-04-05T05:45:51.146Z,2476
2017-04-05T05:46:31.585Z,2504
2017-04-05T05:47:12.021Z,2548
2017-04-05T05:47:52.449Z,2588
2017-04-05T05:48:32.884Z,2720
2017-04-05T05:49:13.360Z,2912
2017-04-05T05:49:53.849Z,3112
2017-04-05T05:50:34.323Z,3248
2017-04-05T05:51:14.768Z,3312
2017-04-05T05:51:55.237Z,3380
2017-04-05T05:52:35.751Z,3444
2017-04-05T05:53:16.201Z,3520
2017-04-05T05:53:56.602Z,3588
2017-04-05T05:56:14.379Z,3828
2017-04-05T05:58:42.338Z,4020
2017-04-05T05:59:22.878Z,4100
2017-04-05T06:00:03.353Z,4172
2017-04-05T06:00:43.843Z,4240
2017-04-05T06:01:24.297Z,4304
2017-04-05T06:02:04.722Z,4400
2017-04-05T06:02:45.149Z,4480
2017-04-05T06:04:57.886Z,4716
2017-04-05T06:05:38.389Z,4792
2017-04-05T06:06:18.863Z,4860
2017-04-05T06:06:59.323Z,4936
2017-04-05T06:09:27.193Z,5140
2017-04-05T06:10:07.688Z,5236
2017-04-05T06:10:48.119Z,5332
2017-04-05T06:11:28.542Z,5420
2017-04-05T06:12:09.105Z,5500
2017-04-05T06:12:49.541Z,5580
2017-04-05T06:13:29.965Z,5652
2017-04-05T06:14:10.407Z,5728
2017-04-05T06:14:50.849Z,5792
2017-04-05T06:16:48.460Z,5948
2017-04-05T06:17:28.933Z,6004
2017-04-05T06:18:09.429Z,6088
2017-04-05T06:18:49.874Z,6144
2017-04-05T06:19:30.304Z,6216
2017-04-05T06:20:10.763Z,6316
2017-04-05T06:20:51.262Z,6252
2017-04-05T06:21:31.700Z,5828
2017-04-05T06:22:12.153Z,5228
2017-04-05T06:24:09.789Z,4668
2017-04-05T06:24:50.266Z,4700
2017-04-05T06:25:30.715Z,4736
2017-04-05T06:26:11.202Z,4768
2017-04-05T06:26:51.652Z,4812
2017-04-05T06:27:32.051Z,4860
2017-04-05T06:28:12.591Z,4916
2017-04-05T06:28:53.036Z,4948
2017-04-05T06:29:33.486Z,4992
2017-04-05T06:30:13.928Z,5036
2017-04-05T06:30:54.384Z,5060
2017-04-05T06:31:34.838Z,5088
2017-04-05T06:32:15.574Z,5112
2017-04-05T06:32:55.981Z,5144
2017-04-05T06:33:36.424Z,5172
2017-04-05T06:34:16.894Z,5196
2017-04-05T06:34:57.369Z,5236
2017-04-05T06:35:37.828Z,5288
2017-04-05T06:36:18.218Z,5324
2017-04-05T06:36:58.718Z,5360
2017-04-05T06:38:56.402Z,5424
2017-04-05T06:39:36.860Z,5460
2017-04-05T06:40:17.379Z,5500
2017-04-05T06:40:57.839Z,5520
2017-04-05T06:43:15.614Z,5728
2017-04-05T06:43:56.125Z,5752
2017-04-05T06:44:36.564Z,5776
2017-04-05T06:45:17.029Z,5796
2017-04-05T06:45:57.517Z,5832
2017-04-05T06:46:38.010Z,5872
2017-04-05T06:47:18.482Z,5872
2017-04-05T06:49:26.360Z,5956
2017-04-05T06:50:06.809Z,5960
2017-04-05T06:50:47.249Z,6008
2017-04-05T06:51:27.702Z,6020
2017-04-05T06:52:08.141Z,6044
2017-04-05T06:52:48.600Z,6340
2017-04-05T06:53:29.060Z,7308
2017-04-05T06:54:09.462Z,8072
2017-04-05T06:54:49.943Z,8344
2017-04-05T06:57:17.796Z,7388
2017-04-05T06:57:58.256Z,7804
2017-04-05T06:58:38.725Z,9116
2017-04-05T06:59:19.175Z,10700
2017-04-05T06:59:59.618Z,11700
2017-04-05T07:01:57.261Z,12056
2017-04-05T07:02:37.696Z,12228
2017-04-05T07:03:18.171Z,12364
2017-04-05T07:03:58.689Z,12496
2017-04-05T07:04:39.160Z,12648
2017-04-05T07:05:19.604Z,12792
2017-04-05T07:06:00.098Z,12944
2017-04-05T07:06:40.579Z,13036
2017-04-05T07:07:21.061Z,13168
2017-04-05T07:08:01.493Z,13300
2017-04-05T07:08:42.026Z,13472
2017-04-05T07:09:22.498Z,13624
2017-04-05T07:10:02.929Z,13828
2017-04-05T07:10:43.494Z,13980
2017-04-05T07:11:23.981Z,14156
2017-04-05T07:12:04.475Z,14344
2017-04-05T07:12:44.958Z,14544
2017-04-05T07:13:25.490Z,14724
2017-04-05T07:14:05.956Z,14912
2017-04-05T07:14:46.404Z,15104
2017-04-05T07:15:26.834Z,15208
2017-04-05T07:16:07.544Z,15252
2017-04-05T07:18:25.199Z,15992
2017-04-05T07:19:05.765Z,16384
2017-04-05T07:19:46.141Z,16608
2017-04-05T07:20:26.675Z,16992
2017-04-05T07:21:07.188Z,17376
2017-04-05T07:21:47.702Z,17792
2017-04-05T07:22:28.167Z,18080
2017-04-05T07:23:08.655Z,18304
2017-04-05T07:23:49.127Z,18624
2017-04-05T07:24:29.578Z,18784
2017-04-05T07:25:10.053Z,19104
2017-04-05T07:25:50.480Z,19488
2017-04-05T07:26:30.913Z,19840
2017-04-05T07:27:11.356Z,20288
2017-04-05T07:27:51.809Z,20672
2017-04-05T07:28:32.306Z,21120
2017-04-05T07:29:12.837Z,21504
2017-04-05T07:29:53.349Z,21824
2017-04-05T07:30:33.819Z,22080
2017-04-05T07:31:14.331Z,22368
2017-04-05T07:31:54.796Z,22560
2017-04-05T07:32:35.246Z,22720
2017-04-05T07:33:15.710Z,22784
2017-04-05T07:33:56.811Z,22720
2017-04-05T07:34:37.254Z,22592
2017-04-05T07:35:17.696Z,22592
2017-04-05T07:41:52.334Z,19328
2017-04-05T07:42:32.732Z,18784
2017-04-05T07:43:13.233Z,18464
2017-04-05T07:43:53.705Z,18336
2017-04-05T07:44:34.104Z,18208
2017-04-05T07:45:14.542Z,20384
2017-04-05T07:45:55.010Z,30368
2017-04-05T07:46:35.462Z,40000
2017-04-05T07:47:15.924Z,42912
2017-04-05T07:47:56.483Z,40288
2017-04-05T07:48:36.964Z,45376
2017-04-05T07:51:04.886Z,56832
2017-04-05T07:51:45.496Z,57728
2017-04-05T07:52:25.951Z,55648
2017-04-05T07:53:06.423Z,54336
2017-04-05T07:55:39.438Z,51488
2017-04-05T07:56:19.965Z,53248
2017-04-05T07:57:00.437Z,54432
2017-04-05T07:57:40.895Z,52128
2017-04-05T07:58:21.388Z,51072
2017-04-05T07:59:01.826Z,49376
2017-04-05T07:59:42.277Z,48800
2017-04-05T08:00:22.724Z,48736
2017-04-05T08:01:03.173Z,47520
2017-04-05T08:01:43.706Z,48256
2017-04-05T08:02:24.283Z,48864
2017-04-05T08:03:04.717Z,49952
2017-04-05T08:03:45.193Z,48768
2017-04-05T08:04:25.701Z,43424
2017-04-05T08:05:06.149Z,35232
2017-04-05T08:07:24.302Z,18272
2017-04-05T08:08:04.776Z,18304
2017-04-05T08:08:45.330Z,18464
2017-04-05T08:09:25.776Z,18656
2017-04-05T08:10:06.295Z,18784
2017-04-05T08:10:46.810Z,18784
2017-04-05T08:11:27.319Z,18752
2017-04-05T08:13:40.057Z,23840
2017-04-05T08:16:08.061Z,29280
2017-04-05T08:16:48.573Z,30336
2017-04-05T08:17:29.066Z,40832
2017-04-05T08:18:09.528Z,51840
2017-04-05T08:18:49.960Z,62560
2017-04-05T08:19:30.489Z,65984
2017-04-05T08:20:11.077Z,68192
2017-04-05T08:20:51.556Z,68256
2017-04-05T08:21:32.200Z,67712
2017-04-05T08:22:12.762Z,66400
2017-04-05T08:22:53.371Z,68224
2017-04-05T08:23:34.894Z,68640
2017-04-05T08:24:15.399Z,69536
2017-04-05T08:24:55.848Z,68576
2017-04-05T08:25:36.287Z,68448
2017-04-05T08:26:16.767Z,66080
2017-04-05T08:26:57.296Z,63712
2017-04-05T08:27:37.953Z,62272
2017-04-05T08:29:35.601Z,65696
2017-04-05T08:30:16.275Z,66656
2017-04-05T08:30:56.545Z,66784
2017-04-05T08:31:37.025Z,65088
2017-04-05T08:33:49.776Z,67296
2017-04-05T08:34:30.349Z,64288
2017-04-05T08:35:10.863Z,65760
2017-04-05T08:35:51.335Z,67616
2017-04-05T08:36:31.788Z,67328
2017-04-05T08:37:12.277Z,65984
2017-04-05T08:37:52.700Z,67040
2017-04-05T08:38:33.456Z,68512
2017-04-05T08:41:06.536Z,59200
2017-04-05T08:41:47.072Z,65024
2017-04-05T08:42:27.510Z,62016
2017-04-05T08:43:07.972Z,58752
2017-04-05T08:43:48.502Z,60032
2017-04-05T08:46:01.275Z,71392
2017-04-05T08:46:41.771Z,73408
2017-04-05T08:47:22.260Z,73792
2017-04-05T08:48:02.709Z,68992
2017-04-05T08:48:43.173Z,68736
2017-04-05T08:49:23.623Z,70016
2017-04-05T08:50:04.197Z,47936
2017-04-05T08:50:44.585Z,55360
2017-04-05T08:51:25.074Z,58464
2017-04-05T08:52:05.648Z,63008
2017-04-05T08:52:46.119Z,63360
2017-04-05T08:53:26.666Z,60896
2017-04-05T08:54:07.192Z,62176
2017-04-05T08:54:47.649Z,55552
2017-04-05T08:55:28.208Z,62144
2017-04-05T08:56:08.724Z,61408
2017-04-05T08:58:21.605Z,69536
2017-04-05T08:59:02.028Z,70464
2017-04-05T08:59:42.670Z,73664
2017-04-05T09:00:23.253Z,68192
2017-04-05T09:01:03.685Z,64544
2017-04-05T09:01:44.162Z,47424
2017-04-05T09:02:24.700Z,35424
2017-04-05T09:03:05.164Z,27008
2017-04-05T09:03:45.608Z,25984
2017-04-05T09:04:26.137Z,25152
2017-04-05T09:05:06.688Z,25760
2017-04-05T09:05:47.161Z,23968
2017-04-05T09:06:27.653Z,24576
2017-04-05T09:07:08.279Z,23456
2017-04-05T09:07:48.760Z,25056
2017-04-05T09:08:29.187Z,27872
2017-04-05T09:09:09.693Z,29632
2017-04-05T09:12:54.718Z,78976
2017-04-05T09:13:35.187Z,78656
2017-04-05T09:14:15.647Z,75424
2017-04-05T09:14:56.109Z,77216
2017-04-05T09:15:36.627Z,73120
2017-04-05T09:16:17.116Z,72704
2017-04-05T09:16:57.771Z,80640
2017-04-05T09:17:38.227Z,81216
2017-04-05T09:18:18.791Z,79712
2017-04-05T09:18:59.245Z,81632
2017-04-05T09:19:39.751Z,73344
2017-04-05T09:20:20.365Z,71968
2017-04-05T09:21:01.019Z,67968
2017-04-05T09:21:41.490Z,63616
2017-04-05T09:22:21.998Z,71168
2017-04-05T09:23:02.445Z,72576
2017-04-05T09:23:43.156Z,73440
2017-04-05T09:24:23.682Z,69056
2017-04-05T09:25:04.460Z,76160
2017-04-05T09:25:44.947Z,73472
2017-04-05T09:26:25.396Z,73600
2017-04-05T09:27:05.864Z,74720
2017-04-05T09:27:46.327Z,75520
2017-04-05T09:29:59.298Z,73056
2017-04-05T09:30:39.818Z,71680
2017-04-05T09:31:20.342Z,75680
2017-04-05T09:32:00.873Z,77184
2017-04-05T09:32:41.430Z,78848
2017-04-05T09:33:21.885Z,77248
2017-04-05T09:34:02.385Z,74624
2017-04-05T09:34:42.848Z,74208
2017-04-05T09:35:23.335Z,74880
2017-04-05T09:36:03.799Z,77024
2017-04-05T09:36:44.257Z,76896
2017-04-05T09:37:24.735Z,77728
2017-04-05T09:38:05.290Z,71488
2017-04-05T09:38:45.795Z,73120
2017-04-05T09:39:26.413Z,67744
2017-04-05T09:40:06.912Z,69152
2017-04-05T09:40:47.409Z,68800
2017-04-05T09:41:27.906Z,70624
2017-04-05T09:42:08.560Z,71456
2017-04-05T09:42:49.152Z,75552
2017-04-05T09:43:29.622Z,73472
2017-04-05T09:44:10.308Z,58752
2017-04-05T09:44:50.873Z,41248
2017-04-05T09:45:31.374Z,30752
2017-04-05T09:46:11.820Z,31584
2017-04-05T09:46:52.389Z,33504
2017-04-05T09:47:32.930Z,33824
2017-04-05T09:48:13.442Z,32864
2017-04-05T09:48:54.022Z,30528
2017-04-05T09:49:34.611Z,29056
2017-04-05T09:50:15.123Z,28064
2017-04-05T09:50:55.597Z,27392
2017-04-05T09:51:36.056Z,26688
2017-04-05T09:52:16.601Z,26112
2017-04-05T09:52:57.204Z,26048
2017-04-05T09:55:31.681Z,22144
2017-04-05T09:56:11.513Z,22656
2017-04-05T09:56:52.095Z,23104
2017-04-05T09:57:32.620Z,22912
2017-04-05T09:58:13.442Z,22368
2017-04-05T10:00:26.230Z,22880
2017-04-05T10:01:06.722Z,22976
2017-04-05T10:01:47.521Z,23232
2017-04-05T10:02:28.135Z,23584
2017-04-05T10:03:08.609Z,26048
2017-04-05T10:03:49.189Z,44128
2017-04-05T10:06:22.247Z,82656
2017-04-05T10:08:35.017Z,84160
2017-04-05T10:09:15.575Z,80576
2017-04-05T10:09:56.093Z,79904
2017-04-05T10:10:36.812Z,68832
2017-04-05T10:11:17.342Z,61632
2017-04-05T10:11:57.812Z,65600
2017-04-05T10:12:38.355Z,74688
2017-04-05T10:15:11.457Z,82784
2017-04-05T10:15:55.212Z,76864
2017-04-05T10:16:38.684Z,89280
2017-04-05T10:17:19.084Z,86656
2017-04-05T10:18:00.448Z,81984
2017-04-05T10:18:40.903Z,75520
2017-04-05T10:19:22.350Z,64576
2017-04-05T10:20:02.856Z,82624
2017-04-05T10:20:43.340Z,89088
2017-04-05T10:21:23.867Z,83392
2017-04-05T10:22:04.341Z,74848
2017-04-05T10:22:44.821Z,77632
2017-04-05T10:23:25.256Z,81344
2017-04-05T10:24:05.711Z,86688
2017-04-05T10:24:46.244Z,88512
2017-04-05T10:25:26.686Z,81920
2017-04-05T10:26:08.158Z,81376
2017-04-05T10:26:48.520Z,75840
2017-04-05T10:27:29.076Z,82112
2017-04-05T10:28:09.517Z,27232
2017-04-05T10:28:50.048Z,59680
2017-04-05T10:29:30.566Z,30816
2017-04-05T10:30:11.160Z,50432
2017-04-05T10:30:51.731Z,34144
2017-04-05T10:31:32.450Z,18400
2017-04-05T10:32:13.033Z,16832
2017-04-05T10:32:53.752Z,16236
2017-04-05T10:33:34.330Z,16216
2017-04-05T10:34:14.977Z,15560
2017-04-05T10:34:55.663Z,15272
2017-04-05T10:35:36.250Z,15060
2017-04-05T10:36:17.053Z,15052
2017-04-05T10:36:57.641Z,15484
2017-04-05T10:37:38.195Z,15700
2017-04-05T10:38:18.758Z,16988
2017-04-05T10:38:59.257Z,20544
2017-04-05T10:39:39.759Z,21888
2017-04-05T10:40:20.241Z,21056
2017-04-05T10:41:00.795Z,20320
2017-04-05T10:41:41.435Z,20512
2017-04-05T10:42:22.025Z,19680
2017-04-05T10:43:02.589Z,32352
2017-04-05T10:43:43.137Z,77600
2017-04-05T10:44:23.660Z,18592
2017-04-05T10:45:04.169Z,17952
2017-04-05T10:45:44.772Z,29312
2017-04-05T10:46:25.380Z,76512
2017-04-05T10:47:06.027Z,37952
2017-04-05T10:47:46.626Z,81312
2017-04-05T10:48:27.266Z,28576
2017-04-05T10:49:07.831Z,24352
2017-04-05T10:49:48.386Z,36544
2017-04-05T10:50:28.949Z,90784
2017-04-05T10:51:09.462Z,94560
2017-04-05T10:51:49.971Z,88672
2017-04-05T10:52:30.432Z,86912
2017-04-05T10:53:10.901Z,90624
2017-04-05T10:53:51.363Z,91552
2017-04-05T10:54:31.868Z,85504
2017-04-05T10:55:12.320Z,99296
2017-04-05T10:57:30.249Z,92256
2017-04-05T10:58:10.765Z,91840
2017-04-05T10:58:51.231Z,96608
2017-04-05T10:59:31.813Z,97664
2017-04-05T11:00:12.437Z,98048
2017-04-05T11:00:53.074Z,101536
2017-04-05T11:01:33.672Z,100672
2017-04-05T11:02:14.201Z,87168
2017-04-05T11:02:54.827Z,91104
2017-04-05T11:03:35.425Z,46720
2017-04-05T11:04:16.026Z,33984
2017-04-05T11:04:56.548Z,57152
2017-04-05T11:05:37.107Z,66656
2017-04-05T11:06:17.716Z,54304
2017-04-05T11:06:58.290Z,94560
2017-04-05T11:07:38.852Z,78720
2017-04-05T11:08:19.381Z,85856
2017-04-05T11:09:00.743Z,90816
2017-04-05T11:09:41.385Z,96000
2017-04-05T11:10:21.854Z,98944
2017-04-05T11:11:02.435Z,101600
2017-04-05T11:11:42.936Z,98112
2017-04-05T11:12:23.598Z,102624
2017-04-05T11:13:04.182Z,100512
2017-04-05T11:15:02.639Z,98784
2017-04-05T11:15:43.786Z,98016
2017-04-05T11:16:24.549Z,101696
2017-04-05T11:17:05.379Z,102784
2017-04-05T11:17:46.041Z,101952
2017-04-05T11:18:26.584Z,101088
2017-04-05T11:19:07.146Z,97600
2017-04-05T11:19:47.748Z,103456
2017-04-05T11:20:28.359Z,106080
2017-04-05T11:21:08.894Z,107808
2017-04-05T11:21:49.890Z,108544
2017-04-05T11:22:30.960Z,107904
2017-04-05T11:23:11.881Z,108768